sensor_id;sensor_type;location;lat;lon;timestamp;pressure;altitude;pressure_sealevel;temperature;humidity
38163;BME280;23977;53.078;18.248;2023-04-21T00:01:38;101904.06;;;6.52;100.00
38163;BME280;23977;53.078;18.248;2023-04-21T00:04:07;101620.72;;;4.65;100.00
38163;BME280;23977;53.078;18.248;2023-04-21T00:06:43;101712.75;;;5.10;100.00
38163;BME280;23977;53.078;18.248;2023-04-21T00:09:16;101902.13;;;6.15;100.00
38163;BME280;23977;53.078;18.248;2023-04-21T00:11:45;101620.56;;;4.12;100.00
38163;BME280;23977;53.078;18.248;2023-04-21T00:14:17;101915.72;;;6.09;100.00
38163;BME280;23977;53.078;18.248;2023-04-21T00:16:57;101498.72;;;3.25;100.00
38163;BME280;23977;53.078;18.248;2023-04-21T00:19:30;101570.69;;;3.67;100.00
38163;BME280;23977;53.078;18.248;2023-04-21T00:21:59;101770.94;;;4.94;100.00
38163;BME280;23977;53.078;18.248;2023-04-21T00:24:29;101912.41;;;5.65;100.00
38163;BME280;23977;53.078;18.248;2023-04-21T00:26:55;101660.88;;;4.00;100.00
38163;BME280;23977;53.078;18.248;2023-04-21T00:29:25;101913.47;;;5.75;100.00
38163;BME280;23977;53.078;18.248;2023-04-21T00:31:54;101677.84;;;4.37;100.00
38163;BME280;23977;53.078;18.248;2023-04-21T00:34:23;101902.38;;;5.43;100.00
38163;BME280;23977;53.078;18.248;2023-04-21T00:36:52;101679.19;;;4.16;100.00
38163;BME280;23977;53.078;18.248;2023-04-21T00:39:21;101439.69;;;2.57;100.00
38163;BME280;23977;53.078;18.248;2023-04-21T00:41:50;101914.78;;;5.14;100.00
38163;BME280;23977;53.078;18.248;2023-04-21T00:44:20;101607.97;;;3.31;100.00
38163;BME280;23977;53.078;18.248;2023-04-21T00:46:49;101462.03;;;2.20;100.00
38163;BME280;23977;53.078;18.248;2023-04-21T00:49:21;101598.47;;;3.14;100.00
38163;BME280;23977;53.078;18.248;2023-04-21T00:51:51;101811.19;;;4.25;100.00
38163;BME280;23977;53.078;18.248;2023-04-21T00:54:18;101623.06;;;2.99;100.00
38163;BME280;23977;53.078;18.248;2023-04-21T00:56:45;101610.13;;;3.10;100.00
38163;BME280;23977;53.078;18.248;2023-04-21T00:59:11;101753.06;;;3.69;100.00
38163;BME280;23977;53.078;18.248;2023-04-21T01:01:37;101877.19;;;4.53;100.00
38163;BME280;23977;53.078;18.248;2023-04-21T01:04:04;101914.69;;;4.72;100.00
38163;BME280;23977;53.078;18.248;2023-04-21T01:06:30;101858.56;;;4.41;100.00
38163;BME280;23977;53.078;18.248;2023-04-21T01:08:59;101788.25;;;3.83;100.00
38163;BME280;23977;53.078;18.248;2023-04-21T01:11:25;101880.84;;;4.36;100.00
38163;BME280;23977;53.078;18.248;2023-04-21T01:13:52;101803.88;;;3.86;100.00
38163;BME280;23977;53.078;18.248;2023-04-21T01:16:21;101875.66;;;4.20;100.00
38163;BME280;23977;53.078;18.248;2023-04-21T01:18:48;101835.94;;;4.08;100.00
38163;BME280;23977;53.078;18.248;2023-04-21T01:21:15;101821.56;;;3.84;100.00
38163;BME280;23977;53.078;18.248;2023-04-21T01:23:41;101833.25;;;3.80;100.00
38163;BME280;23977;53.078;18.248;2023-04-21T01:26:06;101912.38;;;4.37;100.00
38163;BME280;23977;53.078;18.248;2023-04-21T01:28:32;101699.72;;;2.91;100.00
38163;BME280;23977;53.078;18.248;2023-04-21T01:30:57;101906.72;;;4.29;100.00
38163;BME280;23977;53.078;18.248;2023-04-21T01:33:23;101904.75;;;4.18;100.00
38163;BME280;23977;53.078;18.248;2023-04-21T01:35:49;101851.84;;;3.77;100.00
38163;BME280;23977;53.078;18.248;2023-04-21T01:38:15;101663.06;;;2.57;100.00
38163;BME280;23977;53.078;18.248;2023-04-21T01:40:47;101718.88;;;2.93;100.00
38163;BME280;23977;53.078;18.248;2023-04-21T01:43:16;101837.91;;;3.75;100.00
38163;BME280;23977;53.078;18.248;2023-04-21T01:45:42;101788.44;;;3.19;100.00
38163;BME280;23977;53.078;18.248;2023-04-21T01:48:08;101873.25;;;3.70;100.00
38163;BME280;23977;53.078;18.248;2023-04-21T01:50:33;101888.19;;;3.70;100.00
38163;BME280;23977;53.078;18.248;2023-04-21T01:52:59;101849.47;;;3.56;100.00
38163;BME280;23977;53.078;18.248;2023-04-21T01:55:25;101793.59;;;3.37;100.00
38163;BME280;23977;53.078;18.248;2023-04-21T01:57:51;101839.75;;;3.42;100.00
38163;BME280;23977;53.078;18.248;2023-04-21T02:00:16;101818.47;;;3.31;100.00
38163;BME280;23977;53.078;18.248;2023-04-21T02:02:42;101921.97;;;3.78;100.00
38163;BME280;23977;53.078;18.248;2023-04-21T02:05:08;101838.06;;;3.25;100.00
38163;BME280;23977;53.078;18.248;2023-04-21T02:07:33;101763.94;;;2.71;100.00
38163;BME280;23977;53.078;18.248;2023-04-21T02:09:59;101909.94;;;3.74;100.00
38163;BME280;23977;53.078;18.248;2023-04-21T02:12:25;101911.59;;;3.75;100.00
38163;BME280;23977;53.078;18.248;2023-04-21T02:14:50;101829.50;;;3.06;100.00
38163;BME280;23977;53.078;18.248;2023-04-21T02:17:16;101844.78;;;3.15;100.00
38163;BME280;23977;53.078;18.248;2023-04-21T02:19:42;101888.06;;;3.25;100.00
38163;BME280;23977;53.078;18.248;2023-04-21T02:22:08;101871.78;;;3.19;100.00
38163;BME280;23977;53.078;18.248;2023-04-21T02:24:37;101853.88;;;3.25;100.00
38163;BME280;23977;53.078;18.248;2023-04-21T02:27:03;101885.69;;;3.21;100.00
38163;BME280;23977;53.078;18.248;2023-04-21T02:29:29;101861.22;;;3.03;100.00
38163;BME280;23977;53.078;18.248;2023-04-21T02:31:55;101892.13;;;3.47;100.00
38163;BME280;23977;53.078;18.248;2023-04-21T02:34:20;101879.91;;;3.14;100.00
38163;BME280;23977;53.078;18.248;2023-04-21T02:36:47;101914.03;;;3.15;100.00
38163;BME280;23977;53.078;18.248;2023-04-21T02:39:12;101896.38;;;3.02;100.00
38163;BME280;23977;53.078;18.248;2023-04-21T02:41:38;101903.91;;;2.92;100.00
38163;BME280;23977;53.078;18.248;2023-04-21T02:44:04;101837.97;;;2.79;100.00
38163;BME280;23977;53.078;18.248;2023-04-21T02:46:30;101853.16;;;2.74;100.00
38163;BME280;23977;53.078;18.248;2023-04-21T02:48:55;101915.41;;;2.89;100.00
38163;BME280;23977;53.078;18.248;2023-04-21T02:51:21;101915.72;;;3.17;100.00
38163;BME280;23977;53.078;18.248;2023-04-21T02:53:47;101908.00;;;3.29;100.00
38163;BME280;23977;53.078;18.248;2023-04-21T02:56:13;101811.63;;;2.47;100.00
38163;BME280;23977;53.078;18.248;2023-04-21T02:58:38;101908.19;;;2.93;100.00
38163;BME280;23977;53.078;18.248;2023-04-21T03:01:05;101843.81;;;2.35;100.00
38163;BME280;23977;53.078;18.248;2023-04-21T03:03:31;101854.69;;;2.45;100.00
38163;BME280;23977;53.078;18.248;2023-04-21T03:06:02;101899.53;;;2.75;100.00
38163;BME280;23977;53.078;18.248;2023-04-21T03:08:29;101909.69;;;3.14;100.00
38163;BME280;23977;53.078;18.248;2023-04-21T03:10:56;101909.25;;;2.90;100.00
38163;BME280;23977;53.078;18.248;2023-04-21T03:13:22;101903.47;;;2.66;100.00
38163;BME280;23977;53.078;18.248;2023-04-21T03:15:49;101904.06;;;2.55;100.00
38163;BME280;23977;53.078;18.248;2023-04-21T03:18:14;101804.63;;;1.79;100.00
38163;BME280;23977;53.078;18.248;2023-04-21T03:20:40;101907.75;;;2.51;100.00
38163;BME280;23977;53.078;18.248;2023-04-21T03:23:06;101904.28;;;2.51;100.00
38163;BME280;23977;53.078;18.248;2023-04-21T03:25:32;101878.59;;;2.40;100.00
38163;BME280;23977;53.078;18.248;2023-04-21T03:27:58;101866.09;;;2.10;100.00
38163;BME280;23977;53.078;18.248;2023-04-21T03:30:24;101786.25;;;1.79;100.00
38163;BME280;23977;53.078;18.248;2023-04-21T03:32:53;101895.56;;;2.33;100.00
38163;BME280;23977;53.078;18.248;2023-04-21T03:35:23;101900.53;;;2.21;100.00
38163;BME280;23977;53.078;18.248;2023-04-21T03:37:48;101867.50;;;2.00;100.00
38163;BME280;23977;53.078;18.248;2023-04-21T03:40:15;101871.03;;;1.99;100.00
38163;BME280;23977;53.078;18.248;2023-04-21T03:42:40;101797.75;;;1.59;100.00
38163;BME280;23977;53.078;18.248;2023-04-21T03:45:07;101875.19;;;2.03;100.00
38163;BME280;23977;53.078;18.248;2023-04-21T03:47:34;101876.25;;;2.16;100.00
38163;BME280;23977;53.078;18.248;2023-04-21T03:50:02;101879.03;;;2.31;100.00
38163;BME280;23977;53.078;18.248;2023-04-21T03:52:29;101826.53;;;1.96;100.00
38163;BME280;23977;53.078;18.248;2023-04-21T03:54:55;101878.50;;;2.24;100.00
38163;BME280;23977;53.078;18.248;2023-04-21T03:57:20;101811.28;;;1.87;100.00
38163;BME280;23977;53.078;18.248;2023-04-21T03:59:46;101804.78;;;1.94;100.00
38163;BME280;23977;53.078;18.248;2023-04-21T04:02:12;101834.88;;;2.21;100.00
38163;BME280;23977;53.078;18.248;2023-04-21T04:04:37;101910.09;;;3.23;100.00
38163;BME280;23977;53.078;18.248;2023-04-21T04:07:03;101858.44;;;3.84;100.00
38163;BME280;23977;53.078;18.248;2023-04-21T04:09:29;101867.41;;;4.69;100.00
38163;BME280;23977;53.078;18.248;2023-04-21T04:11:54;101902.13;;;5.61;100.00
38163;BME280;23977;53.078;18.248;2023-04-21T04:14:20;101738.56;;;5.32;100.00
38163;BME280;23977;53.078;18.248;2023-04-21T04:16:46;101909.66;;;7.35;100.00
38163;BME280;23977;53.078;18.248;2023-04-21T04:19:11;101824.09;;;7.70;100.00
38163;BME280;23977;53.078;18.248;2023-04-21T04:21:37;101910.88;;;9.07;98.07
38163;BME280;23977;53.078;18.248;2023-04-21T04:24:03;101916.63;;;9.90;86.12
38163;BME280;23977;53.078;18.248;2023-04-21T04:26:30;101890.69;;;10.03;82.91
38163;BME280;23977;53.078;18.248;2023-04-21T04:28:59;101881.91;;;10.45;75.22
38163;BME280;23977;53.078;18.248;2023-04-21T04:31:29;101879.22;;;10.45;75.21
38163;BME280;23977;53.078;18.248;2023-04-21T04:33:56;101868.09;;;10.61;73.35
38163;BME280;23977;53.078;18.248;2023-04-21T04:36:22;101908.53;;;11.06;72.37
38163;BME280;23977;53.078;18.248;2023-04-21T04:38:49;101909.44;;;11.36;70.04
38163;BME280;23977;53.078;18.248;2023-04-21T04:41:22;101884.78;;;11.73;69.14
38163;BME280;23977;53.078;18.248;2023-04-21T04:43:52;101810.25;;;11.81;66.28
38163;BME280;23977;53.078;18.248;2023-04-21T04:46:17;101908.91;;;13.15;63.75
38163;BME280;23977;53.078;18.248;2023-04-21T04:48:45;101877.84;;;13.42;62.96
38163;BME280;23977;53.078;18.248;2023-04-21T04:51:12;101888.63;;;13.68;63.30
38163;BME280;23977;53.078;18.248;2023-04-21T04:53:38;101876.47;;;14.36;61.61
38163;BME280;23977;53.078;18.248;2023-04-21T04:56:04;101874.16;;;15.94;52.47
38163;BME280;23977;53.078;18.248;2023-04-21T04:58:30;101686.22;;;14.54;53.57
38163;BME280;23977;53.078;18.248;2023-04-21T05:00:56;101562.78;;;13.72;54.63
38163;BME280;23977;53.078;18.248;2023-04-21T05:05:55;101910.81;;;17.23;51.89
38163;BME280;23977;53.078;18.248;2023-04-21T05:08:27;101754.34;;;17.34;49.05
38163;BME280;23977;53.078;18.248;2023-04-21T05:10:53;101574.53;;;17.23;44.52
38163;BME280;23977;53.078;18.248;2023-04-21T05:13:19;101584.03;;;18.15;42.68
38163;BME280;23977;53.078;18.248;2023-04-21T05:15:47;101896.94;;;20.46;42.16
38163;BME280;23977;53.078;18.248;2023-04-21T05:22:43;101668.56;;;20.42;39.77
38163;BME280;23977;53.078;18.248;2023-04-21T05:26:22;101781.84;;;22.59;37.08
38163;BME280;23977;53.078;18.248;2023-04-21T05:29:39;101719.47;;;22.00;38.25
38163;BME280;23977;53.078;18.248;2023-04-21T05:32:44;101662.63;;;22.96;35.54
38163;BME280;23977;53.078;18.248;2023-04-21T05:35:15;101869.19;;;23.64;36.68
38163;BME280;23977;53.078;18.248;2023-04-21T05:38:10;101890.63;;;24.55;35.36
38163;BME280;23977;53.078;18.248;2023-04-21T05:40:36;101885.03;;;24.87;33.70
38163;BME280;23977;53.078;18.248;2023-04-21T05:43:02;101858.13;;;25.39;33.31
38163;BME280;23977;53.078;18.248;2023-04-21T05:45:29;101848.03;;;25.82;31.34
38163;BME280;23977;53.078;18.248;2023-04-21T05:47:54;101873.09;;;26.26;30.01
38163;BME280;23977;53.078;18.248;2023-04-21T05:50:20;101880.53;;;26.54;30.20
38163;BME280;23977;53.078;18.248;2023-04-21T05:52:45;101891.81;;;28.02;28.37
38163;BME280;23977;53.078;18.248;2023-04-21T05:55:11;101806.78;;;26.78;29.42
38163;BME280;23977;53.078;18.248;2023-04-21T05:57:37;101880.34;;;26.97;29.70
38163;BME280;23977;53.078;18.248;2023-04-21T06:00:03;101815.78;;;28.26;27.99
38163;BME280;23977;53.078;18.248;2023-04-21T06:02:30;101877.22;;;28.74;27.15
38163;BME280;23977;53.078;18.248;2023-04-21T06:04:56;101867.19;;;29.07;27.23
38163;BME280;23977;53.078;18.248;2023-04-21T06:07:21;101823.34;;;30.68;24.36
38163;BME280;23977;53.078;18.248;2023-04-21T06:09:50;101851.88;;;31.76;23.74
38163;BME280;23977;53.078;18.248;2023-04-21T06:12:15;101844.13;;;31.88;23.75
38163;BME280;23977;53.078;18.248;2023-04-21T06:14:41;101741.44;;;31.93;22.74
38163;BME280;23977;53.078;18.248;2023-04-21T06:17:06;101859.81;;;31.93;22.98
38163;BME280;23977;53.078;18.248;2023-04-21T06:19:36;101811.97;;;31.48;22.35
38163;BME280;23977;53.078;18.248;2023-04-21T06:22:02;101854.41;;;32.63;21.82
38163;BME280;23977;53.078;18.248;2023-04-21T06:24:31;101857.47;;;32.52;22.17
38163;BME280;23977;53.078;18.248;2023-04-21T06:26:56;101862.03;;;31.40;24.01
38163;BME280;23977;53.078;18.248;2023-04-21T06:29:22;101822.13;;;31.78;22.33
38163;BME280;23977;53.078;18.248;2023-04-21T06:31:48;101840.84;;;31.61;22.53
38163;BME280;23977;53.078;18.248;2023-04-21T06:34:14;101842.19;;;31.94;21.84
38163;BME280;23977;53.078;18.248;2023-04-21T06:36:41;101794.06;;;29.40;23.34
38163;BME280;23977;53.078;18.248;2023-04-21T06:39:06;101792.53;;;30.50;22.46
38163;BME280;23977;53.078;18.248;2023-04-21T06:41:32;101862.44;;;30.80;22.50
38163;BME280;23977;53.078;18.248;2023-04-21T06:43:58;101827.69;;;30.48;22.76
38163;BME280;23977;53.078;18.248;2023-04-21T06:46:23;101702.97;;;29.33;23.30
38163;BME280;23977;53.078;18.248;2023-04-21T06:48:49;101806.50;;;29.91;23.04
38163;BME280;23977;53.078;18.248;2023-04-21T06:51:15;101844.91;;;29.91;23.89
38163;BME280;23977;53.078;18.248;2023-04-21T06:53:40;101712.81;;;29.77;22.84
38163;BME280;23977;53.078;18.248;2023-04-21T06:56:06;101832.72;;;30.72;23.16
38163;BME280;23977;53.078;18.248;2023-04-21T06:58:33;101822.28;;;32.33;21.40
38163;BME280;23977;53.078;18.248;2023-04-21T07:00:58;101796.00;;;33.70;20.04
38163;BME280;23977;53.078;18.248;2023-04-21T07:03:26;101825.59;;;34.42;19.28
38163;BME280;23977;53.078;18.248;2023-04-21T07:05:52;101791.84;;;34.45;19.44
38163;BME280;23977;53.078;18.248;2023-04-21T07:08:20;101713.13;;;35.27;17.77
38163;BME280;23977;53.078;18.248;2023-04-21T07:10:45;101784.56;;;36.13;18.06
38163;BME280;23977;53.078;18.248;2023-04-21T07:13:11;101801.53;;;36.26;18.44
38163;BME280;23977;53.078;18.248;2023-04-21T07:15:36;101813.09;;;36.42;18.38
38163;BME280;23977;53.078;18.248;2023-04-21T07:18:06;101655.25;;;36.23;17.02
38163;BME280;23977;53.078;18.248;2023-04-21T07:20:32;101748.28;;;37.42;16.24
38163;BME280;23977;53.078;18.248;2023-04-21T07:22:58;101733.59;;;37.42;17.10
38163;BME280;23977;53.078;18.248;2023-04-21T07:25:23;101809.28;;;37.25;16.77
38163;BME280;23977;53.078;18.248;2023-04-21T07:27:49;101830.94;;;37.68;16.66
38163;BME280;23977;53.078;18.248;2023-04-21T07:30:15;101828.97;;;38.92;15.83
38163;BME280;23977;53.078;18.248;2023-04-21T07:32:41;101835.44;;;38.18;16.36
38163;BME280;23977;53.078;18.248;2023-04-21T07:35:07;101820.09;;;38.55;16.17
38163;BME280;23977;53.078;18.248;2023-04-21T07:37:32;101784.41;;;38.22;16.53
38163;BME280;23977;53.078;18.248;2023-04-21T07:39:58;101825.06;;;38.93;16.51
38163;BME280;23977;53.078;18.248;2023-04-21T07:42:24;101792.28;;;38.55;15.85
38163;BME280;23977;53.078;18.248;2023-04-21T07:44:51;101795.31;;;37.70;16.16
38163;BME280;23977;53.078;18.248;2023-04-21T07:47:17;101753.75;;;36.79;17.15
38163;BME280;23977;53.078;18.248;2023-04-21T07:49:43;101763.19;;;37.46;17.05
38163;BME280;23977;53.078;18.248;2023-04-21T07:52:08;101807.28;;;39.59;15.73
38163;BME280;23977;53.078;18.248;2023-04-21T07:54:34;101820.06;;;39.60;15.20
38163;BME280;23977;53.078;18.248;2023-04-21T07:57:00;101796.53;;;38.44;16.56
38163;BME280;23977;53.078;18.248;2023-04-21T07:59:26;101815.78;;;40.31;14.72
38163;BME280;23977;53.078;18.248;2023-04-21T08:01:52;101802.28;;;41.17;14.38
38163;BME280;23977;53.078;18.248;2023-04-21T08:04:18;101782.97;;;41.12;14.23
38163;BME280;23977;53.078;18.248;2023-04-21T08:06:43;101779.56;;;41.52;13.94
38163;BME280;23977;53.078;18.248;2023-04-21T08:09:09;101798.44;;;41.68;13.66
38163;BME280;23977;53.078;18.248;2023-04-21T08:11:35;101748.13;;;41.92;13.60
38163;BME280;23977;53.078;18.248;2023-04-21T08:14:01;101786.47;;;43.30;13.16
38163;BME280;23977;53.078;18.248;2023-04-21T08:16:28;101791.78;;;42.22;13.85
38163;BME280;23977;53.078;18.248;2023-04-21T08:18:53;101793.28;;;42.44;13.19
38163;BME280;23977;53.078;18.248;2023-04-21T08:21:19;101775.97;;;41.64;13.49
38163;BME280;23977;53.078;18.248;2023-04-21T08:23:45;101785.41;;;42.21;13.09
38163;BME280;23977;53.078;18.248;2023-04-21T08:26:10;101736.19;;;42.20;13.29
38163;BME280;23977;53.078;18.248;2023-04-21T08:28:36;101773.22;;;40.85;14.12
38163;BME280;23977;53.078;18.248;2023-04-21T08:31:02;101788.19;;;41.72;12.96
38163;BME280;23977;53.078;18.248;2023-04-21T08:33:28;101703.13;;;41.23;13.96
38163;BME280;23977;53.078;18.248;2023-04-21T08:35:54;101729.25;;;41.89;12.37
38163;BME280;23977;53.078;18.248;2023-04-21T08:38:20;101777.16;;;41.88;13.33
38163;BME280;23977;53.078;18.248;2023-04-21T08:40:46;101769.69;;;42.45;12.96
38163;BME280;23977;53.078;18.248;2023-04-21T08:43:13;101754.66;;;42.49;12.55
38163;BME280;23977;53.078;18.248;2023-04-21T08:45:40;101752.03;;;42.97;12.48
38163;BME280;23977;53.078;18.248;2023-04-21T08:48:05;101756.03;;;40.32;14.30
38163;BME280;23977;53.078;18.248;2023-04-21T08:50:32;101767.66;;;41.55;13.37
38163;BME280;23977;53.078;18.248;2023-04-21T08:52:58;101766.41;;;41.90;12.82
38163;BME280;23977;53.078;18.248;2023-04-21T08:55:27;101775.00;;;39.40;13.83
38163;BME280;23977;53.078;18.248;2023-04-21T08:57:53;101749.31;;;39.52;13.72
38163;BME280;23977;53.078;18.248;2023-04-21T09:00:18;101722.03;;;39.96;14.35
38163;BME280;23977;53.078;18.248;2023-04-21T09:02:59;101769.22;;;42.14;13.32
38163;BME280;23977;53.078;18.248;2023-04-21T09:05:30;101748.44;;;43.76;12.11
38163;BME280;23977;53.078;18.248;2023-04-21T09:08:13;101768.75;;;42.12;12.60
38163;BME280;23977;53.078;18.248;2023-04-21T09:10:43;101763.97;;;41.88;12.91
38163;BME280;23977;53.078;18.248;2023-04-21T09:13:09;101741.91;;;40.58;13.40
38163;BME280;23977;53.078;18.248;2023-04-21T09:15:42;101743.69;;;38.35;14.49
38163;BME280;23977;53.078;18.248;2023-04-21T09:18:14;101767.41;;;38.33;14.86
38163;BME280;23977;53.078;18.248;2023-04-21T09:20:41;101761.75;;;37.98;15.96
38163;BME280;23977;53.078;18.248;2023-04-21T09:23:09;101711.97;;;37.07;15.81
38163;BME280;23977;53.078;18.248;2023-04-21T09:25:38;101754.34;;;38.77;14.27
38163;BME280;23977;53.078;18.248;2023-04-21T09:28:12;101725.50;;;39.55;14.22
38163;BME280;23977;53.078;18.248;2023-04-21T09:30:40;101759.88;;;38.24;14.28
38163;BME280;23977;53.078;18.248;2023-04-21T09:33:06;101745.44;;;36.79;15.75
38163;BME280;23977;53.078;18.248;2023-04-21T09:35:36;101731.81;;;36.92;15.47
38163;BME280;23977;53.078;18.248;2023-04-21T09:38:09;101743.88;;;37.41;15.13
38163;BME280;23977;53.078;18.248;2023-04-21T09:40:35;101739.28;;;36.82;15.55
38163;BME280;23977;53.078;18.248;2023-04-21T09:43:01;101755.66;;;36.93;15.14
38163;BME280;23977;53.078;18.248;2023-04-21T09:45:27;101749.50;;;36.23;16.11
38163;BME280;23977;53.078;18.248;2023-04-21T09:47:58;101740.72;;;36.80;15.97
38163;BME280;23977;53.078;18.248;2023-04-21T09:50:27;101737.78;;;36.26;16.06
38163;BME280;23977;53.078;18.248;2023-04-21T09:52:53;101731.16;;;37.17;15.32
38163;BME280;23977;53.078;18.248;2023-04-21T09:55:26;101716.03;;;36.05;16.32
38163;BME280;23977;53.078;18.248;2023-04-21T09:58:01;101689.59;;;34.26;17.05
38163;BME280;23977;53.078;18.248;2023-04-21T10:00:28;101716.16;;;34.60;16.27
38163;BME280;23977;53.078;18.248;2023-04-21T10:02:59;101723.81;;;33.82;16.13
38163;BME280;23977;53.078;18.248;2023-04-21T10:05:28;101699.03;;;33.47;16.55
38163;BME280;23977;53.078;18.248;2023-04-21T10:07:54;101716.13;;;33.25;17.76
38163;BME280;23977;53.078;18.248;2023-04-21T10:10:25;101646.16;;;31.92;18.26
38163;BME280;23977;53.078;18.248;2023-04-21T10:12:51;101729.44;;;31.12;19.18
38163;BME280;23977;53.078;18.248;2023-04-21T10:15:28;101694.72;;;28.68;21.35
38163;BME280;23977;53.078;18.248;2023-04-21T10:18:12;101703.53;;;25.46;24.65
38163;BME280;23977;53.078;18.248;2023-04-21T10:21:06;101732.88;;;23.68;27.14
38163;BME280;23977;53.078;18.248;2023-04-21T10:26:16;101721.66;;;22.30;27.78
38163;BME280;23977;53.078;18.248;2023-04-21T10:31:17;101726.56;;;21.14;28.96
38163;BME280;23977;53.078;18.248;2023-04-21T10:39:09;101669.09;;;19.75;32.21
38163;BME280;23977;53.078;18.248;2023-04-21T10:41:37;101683.28;;;19.84;32.04
38163;BME280;23977;53.078;18.248;2023-04-21T10:44:11;101681.88;;;20.02;31.55
38163;BME280;23977;53.078;18.248;2023-04-21T10:49:20;101651.75;;;19.35;33.86
38163;BME280;23977;53.078;18.248;2023-04-21T10:54:29;101720.56;;;19.74;31.76
38163;BME280;23977;53.078;18.248;2023-04-21T10:56:58;101706.59;;;19.64;31.76
38163;BME280;23977;53.078;18.248;2023-04-21T10:59:38;101714.22;;;19.60;32.38
38163;BME280;23977;53.078;18.248;2023-04-21T11:02:09;101704.13;;;19.69;32.46
38163;BME280;23977;53.078;18.248;2023-04-21T11:04:36;101709.09;;;19.65;34.04
38163;BME280;23977;53.078;18.248;2023-04-21T11:07:12;101623.84;;;19.21;34.45
38163;BME280;23977;53.078;18.248;2023-04-21T11:09:39;101600.03;;;19.03;34.57
38163;BME280;23977;53.078;18.248;2023-04-21T11:12:41;101693.44;;;19.54;33.61
38163;BME280;23977;53.078;18.248;2023-04-21T11:15:09;101701.28;;;19.49;33.40
38163;BME280;23977;53.078;18.248;2023-04-21T11:17:36;101687.94;;;19.40;34.18
38163;BME280;23977;53.078;18.248;2023-04-21T11:20:04;101660.91;;;19.34;33.65
38163;BME280;23977;53.078;18.248;2023-04-21T11:22:38;101677.97;;;19.41;33.44
38163;BME280;23977;53.078;18.248;2023-04-21T11:25:16;101635.34;;;19.08;36.23
38163;BME280;23977;53.078;18.248;2023-04-21T11:30:13;101304.94;;;17.06;33.93
38163;BME280;23977;53.078;18.248;2023-04-21T11:32:41;101448.25;;;17.88;32.80
38163;BME280;23977;53.078;18.248;2023-04-21T11:35:14;101670.28;;;19.16;33.95
38163;BME280;23977;53.078;18.248;2023-04-21T11:37:48;101340.34;;;17.10;34.23
38163;BME280;23977;53.078;18.248;2023-04-21T11:40:22;101381.63;;;17.38;33.31
38163;BME280;23977;53.078;18.248;2023-04-21T11:42:48;101671.28;;;19.09;33.63
38163;BME280;23977;53.078;18.248;2023-04-21T11:45:17;101307.75;;;16.68;34.14
38163;BME280;23977;53.078;18.248;2023-04-21T11:50:38;101656.16;;;19.14;34.35
38163;BME280;23977;53.078;18.248;2023-04-21T11:53:05;101660.19;;;18.97;33.56
38163;BME280;23977;53.078;18.248;2023-04-21T11:55:31;101640.88;;;18.78;34.21
38163;BME280;23977;53.078;18.248;2023-04-21T11:57:58;101620.84;;;18.66;36.75
38163;BME280;23977;53.078;18.248;2023-04-21T12:00:28;101636.88;;;18.89;36.50
38163;BME280;23977;53.078;18.248;2023-04-21T12:02:55;101656.81;;;19.16;35.83
38163;BME280;23977;53.078;18.248;2023-04-21T12:05:35;101616.69;;;18.85;36.68
38163;BME280;23977;53.078;18.248;2023-04-21T12:08:01;101640.69;;;19.01;35.61
38163;BME280;23977;53.078;18.248;2023-04-21T12:10:28;101649.09;;;19.13;35.09
38163;BME280;23977;53.078;18.248;2023-04-21T12:12:55;101619.50;;;18.98;35.00
38163;BME280;23977;53.078;18.248;2023-04-21T12:15:20;101609.91;;;18.89;34.71
38163;BME280;23977;53.078;18.248;2023-04-21T12:17:49;101648.69;;;19.16;34.86
38163;BME280;23977;53.078;18.248;2023-04-21T12:20:16;101607.06;;;18.97;34.18
38163;BME280;23977;53.078;18.248;2023-04-21T12:22:43;101631.41;;;19.04;35.24
38163;BME280;23977;53.078;18.248;2023-04-21T12:25:08;101541.28;;;18.48;34.40
38163;BME280;23977;53.078;18.248;2023-04-21T12:27:34;101591.50;;;18.78;34.47
38163;BME280;23977;53.078;18.248;2023-04-21T12:30:00;101592.34;;;18.57;33.25
38163;BME280;23977;53.078;18.248;2023-04-21T12:32:26;101612.25;;;18.77;34.19
38163;BME280;23977;53.078;18.248;2023-04-21T12:34:52;101571.63;;;18.57;33.80
38163;BME280;23977;53.078;18.248;2023-04-21T12:37:18;101590.19;;;18.67;33.73
38163;BME280;23977;53.078;18.248;2023-04-21T12:39:43;101511.34;;;18.22;32.50
38163;BME280;23977;53.078;18.248;2023-04-21T12:42:09;101577.38;;;18.76;34.21
38163;BME280;23977;53.078;18.248;2023-04-21T12:44:35;101575.13;;;18.79;34.74
38163;BME280;23977;53.078;18.248;2023-04-21T12:47:01;101566.53;;;18.69;33.58
38163;BME280;23977;53.078;18.248;2023-04-21T12:49:26;101567.41;;;18.76;34.36
38163;BME280;23977;53.078;18.248;2023-04-21T12:51:52;101563.97;;;18.82;33.41
38163;BME280;23977;53.078;18.248;2023-04-21T12:54:18;101550.31;;;18.84;33.11
38163;BME280;23977;53.078;18.248;2023-04-21T12:56:43;101533.81;;;18.72;34.61
38163;BME280;23977;53.078;18.248;2023-04-21T12:59:09;101553.69;;;18.71;33.79
38163;BME280;23977;53.078;18.248;2023-04-21T13:01:37;101594.69;;;19.10;33.38
38163;BME280;23977;53.078;18.248;2023-04-21T13:04:03;101591.06;;;18.96;34.22
38163;BME280;23977;53.078;18.248;2023-04-21T13:06:29;101570.25;;;18.68;32.80
38163;BME280;23977;53.078;18.248;2023-04-21T13:08:57;101589.91;;;18.83;33.10
38163;BME280;23977;53.078;18.248;2023-04-21T13:11:22;101591.19;;;18.88;32.54
38163;BME280;23977;53.078;18.248;2023-04-21T13:13:48;101586.69;;;18.95;32.76